Time;durP1;ratioP1;P1;durP2;ratioP2;P2;SDS_P1;SDS_P2;PMS_P1;PMS_P2;Temp;Humidity;BMP_temperature;BMP_pressure;BME280_temperature;BME280_humidity;BME280_pressure;Samples;Min_cycle;Max_cycle;Signal;HPM_P1;HPM_P2
2022/11/14 00:00:13;;;;;;;10.57;7.68;;;;;;;2.52;100.00;100755.41;687387;28;1231;-67
2022/11/14 00:00:53;;;;;;;10.90;7.60;;;;;;;2.63;100.00;100750.56;687241;28;4305;-66
2022/11/14 00:01:32;;;;;;;13.80;8.40;;;;;;;2.60;100.00;100759.91;685536;28;1241;-66
2022/11/14 00:02:11;;;;;;;11.65;7.85;;;;;;;2.58;100.00;100759.03;687383;28;1123;-65
2022/11/14 00:02:50;;;;;;;10.40;7.93;;;;;;;2.47;100.00;100759.56;688034;28;1194;-66
2022/11/14 00:03:29;;;;;;;11.60;7.50;;;;;;;2.59;100.00;100758.16;687733;28;1179;-66
2022/11/14 00:04:08;;;;;;;11.68;7.60;;;;;;;2.58;100.00;100752.13;683875;28;5153;-67
2022/11/14 00:04:48;;;;;;;10.90;7.28;;;;;;;2.55;100.00;100749.47;684335;28;1982;-67
2022/11/14 00:05:27;;;;;;;11.57;7.45;;;;;;;2.60;100.00;100752.19;685247;28;1088;-67
2022/11/14 00:06:06;;;;;;;10.93;7.90;;;;;;;2.45;100.00;100757.75;685334;28;1039;-66
2022/11/14 00:06:45;;;;;;;10.18;7.45;;;;;;;2.52;100.00;100749.34;684833;28;4481;-66
2022/11/14 00:07:29;;;;;;;9.60;7.43;;;;;;;2.72;100.00;100752.53;685205;28;1024;-66
2022/11/14 00:08:24;;;;;;;10.48;7.95;;;;;;;2.53;100.00;100753.69;684128;28;1902;-65
2022/11/14 00:09:03;;;;;;;10.38;7.57;;;;;;;2.63;100.00;100748.00;685738;28;1080;-66
2022/11/14 00:09:42;;;;;;;11.23;7.60;;;;;;;2.57;100.00;100752.09;683920;28;4427;-66
2022/11/14 00:10:22;;;;;;;11.60;7.43;;;;;;;2.56;100.00;100746.03;684371;28;1050;-67
2022/11/14 00:11:01;;;;;;;10.65;7.47;;;;;;;2.67;100.00;100747.25;688080;28;993;-65
2022/11/14 00:11:40;;;;;;;11.15;7.72;;;;;;;2.70;100.00;100749.91;686373;28;1310;-66
2022/11/14 00:12:19;;;;;;;10.80;7.50;;;;;;;2.63;100.00;100748.00;687207;28;1344;-66
2022/11/14 00:12:58;;;;;;;10.52;7.40;;;;;;;2.55;100.00;100754.63;684564;28;5141;-65
2022/11/14 00:13:37;;;;;;;10.38;7.43;;;;;;;2.57;100.00;100752.09;684120;28;1107;-67
2022/11/14 00:14:16;;;;;;;9.68;7.28;;;;;;;2.57;100.00;100758.13;684748;28;1096;-65
2022/11/14 00:14:55;;;;;;;11.43;7.00;;;;;;;2.45;100.00;100760.34;685279;28;1104;-66
2022/11/14 00:15:34;;;;;;;9.35;7.07;;;;;;;2.31;100.00;100760.81;685283;28;1218;-67
2022/11/14 00:16:13;;;;;;;10.52;7.55;;;;;;;2.54;100.00;100758.03;683765;28;5027;-66
2022/11/14 00:16:52;;;;;;;10.18;7.60;;;;;;;2.49;100.00;100764.75;685131;28;1028;-66
2022/11/14 00:17:31;;;;;;;10.02;7.50;;;;;;;2.52;100.00;100763.16;684987;28;1127;-65
2022/11/14 00:18:10;;;;;;;10.52;7.70;;;;;;;2.42;100.00;100763.69;684099;28;1248;-66
2022/11/14 00:18:50;;;;;;;9.63;7.20;;;;;;;2.53;100.00;100757.19;683953;28;4346;-66
2022/11/14 00:19:30;;;;;;;10.57;7.30;;;;;;;2.49;100.00;100760.50;682797;28;1176;-67
2022/11/14 00:20:11;;;;;;;9.98;7.57;;;;;;;2.50;100.00;100759.63;682880;28;4238;-66
2022/11/14 00:20:52;;;;;;;10.25;7.60;;;;;;;2.55;100.00;100759.78;682367;28;1164;-67
2022/11/14 00:21:31;;;;;;;10.85;7.30;;;;;;;2.45;100.00;100771.56;685147;28;1282;-65
2022/11/14 00:22:10;;;;;;;9.57;7.20;;;;;;;2.53;100.00;100756.28;683754;28;5060;-66
2022/11/14 00:22:49;;;;;;;10.27;7.35;;;;;;;2.48;100.00;100758.72;684375;28;1084;-66
2022/11/14 00:23:28;;;;;;;10.75;7.78;;;;;;;2.36;100.00;100755.78;685515;28;1035;-66
2022/11/14 00:24:07;;;;;;;9.10;6.93;;;;;;;2.27;100.00;100758.97;685651;28;1079;-66
2022/11/14 00:24:46;;;;;;;9.05;6.78;;;;;;;2.30;100.00;100759.06;683668;28;4455;-67
2022/11/14 00:25:25;;;;;;;10.85;7.00;;;;;;;2.59;100.00;100756.47;684511;28;1096;-66
2022/11/14 00:26:04;;;;;;;10.73;7.20;;;;;;;2.51;100.00;100763.13;685187;28;1349;-66
2022/11/14 00:26:43;;;;;;;9.55;7.05;;;;;;;2.49;100.00;100757.03;684104;28;966;-66
2022/11/14 00:27:22;;;;;;;9.40;7.20;;;;;;;2.41;100.00;100761.97;684485;28;1281;-66
2022/11/14 00:28:01;;;;;;;10.13;7.70;;;;;;;2.37;100.00;100753.25;685222;28;5113;-67
2022/11/14 00:28:40;;;;;;;10.68;7.25;;;;;;;2.30;100.00;100759.06;684878;28;1171;-66
2022/11/14 00:29:19;;;;;;;9.27;7.10;;;;;;;2.33;100.00;100753.97;684837;28;1286;-66
2022/11/14 00:29:59;;;;;;;9.93;7.38;;;;;;;2.27;100.00;100747.75;684983;28;1147;-66
2022/11/14 00:30:38;;;;;;;10.30;7.38;;;;;;;2.34;100.00;100750.59;683191;28;4390;-66
2022/11/14 00:31:17;;;;;;;9.73;6.93;;;;;;;2.56;100.00;100756.34;684838;28;1297;-67
2022/11/14 00:31:56;;;;;;;9.50;7.20;;;;;;;2.35;100.00;100751.44;686980;28;1236;-66
2022/11/14 00:32:35;;;;;;;8.73;7.05;;;;;;;2.30;100.00;100759.06;686993;28;1373;-66
2022/11/14 00:33:14;;;;;;;10.13;7.10;;;;;;;2.26;100.00;100752.06;685148;28;1462;-66
2022/11/14 00:33:53;;;;;;;8.88;6.90;;;;;;;2.20;100.00;100747.59;681759;28;4303;-66
2022/11/14 00:34:33;;;;;;;8.73;6.60;;;;;;;2.28;100.00;100749.53;682126;28;1235;-66
2022/11/14 00:35:12;;;;;;;9.35;6.90;;;;;;;2.18;100.00;100754.38;681413;28;1116;-66
2022/11/14 00:35:55;;;;;;;9.40;6.95;;;;;;;2.26;100.00;100746.00;681822;28;1060;-67
2022/11/14 00:36:35;;;;;;;9.18;7.10;;;;;;;2.33;100.00;100746.25;682563;28;1264;-67
2022/11/14 00:37:14;;;;;;;9.60;6.85;;;;;;;2.42;100.00;100749.94;683593;28;5170;-67
2022/11/14 00:37:53;;;;;;;9.40;7.00;;;;;;;2.34;100.00;100745.41;684798;28;1108;-65
2022/11/14 00:38:32;;;;;;;9.60;6.82;;;;;;;2.24;100.00;100748.53;685392;28;964;-67
2022/11/14 00:39:12;;;;;;;10.40;7.10;;;;;;;2.25;100.00;100739.97;683976;28;1134;-67
2022/11/14 00:39:52;;;;;;;10.23;7.20;;;;;;;2.26;100.00;100743.41;684422;28;4457;-67
2022/11/14 00:40:31;;;;;;;10.30;7.07;;;;;;;2.28;100.00;100741.78;684591;28;1080;-65
2022/11/14 00:41:10;;;;;;;9.75;7.10;;;;;;;2.30;100.00;100743.59;684584;28;1324;-66
2022/11/14 00:41:49;;;;;;;10.20;7.30;;;;;;;2.45;100.00;100738.00;685869;28;1135;-66
2022/11/14 00:42:28;;;;;;;10.15;7.30;;;;;;;2.31;100.00;100745.34;684959;28;1366;-65
2022/11/14 00:43:06;;;;;;;10.75;7.10;;;;;;;2.32;100.00;100743.63;684071;28;4976;-66
2022/11/14 00:43:46;;;;;;;8.88;6.65;;;;;;;2.34;100.00;100734.22;684776;28;1240;-65
2022/11/14 00:44:25;;;;;;;8.75;6.65;;;;;;;2.35;100.00;100739.44;684857;28;1092;-66
2022/11/14 00:45:04;;;;;;;11.45;7.70;;;;;;;2.43;100.00;100739.66;684682;28;1226;-66
2022/11/14 00:45:44;;;;;;;9.13;7.10;;;;;;;2.30;100.00;100748.75;684393;28;4602;-66
2022/11/14 00:46:23;;;;;;;9.50;7.20;;;;;;;2.28;100.00;100742.63;684546;28;902;-66
2022/11/14 00:47:02;;;;;;;11.38;7.22;;;;;;;2.41;100.00;100743.00;684923;28;1001;-66
2022/11/14 00:47:41;;;;;;;8.15;6.60;;;;;;;2.25;100.00;100744.28;685035;28;1198;-66
2022/11/14 00:48:19;;;;;;;9.63;7.05;;;;;;;2.12;100.00;100732.69;685572;28;1235;-66
2022/11/14 00:48:58;;;;;;;9.13;7.00;;;;;;;2.21;100.00;100732.97;684372;28;4977;-66
2022/11/14 00:49:37;;;;;;;9.20;6.90;;;;;;;2.36;100.00;100733.44;684920;28;1139;-65
2022/11/14 00:50:17;;;;;;;9.27;7.03;;;;;;;2.30;100.00;100735.84;683661;28;1242;-67
2022/11/14 00:50:56;;;;;;;8.93;6.70;;;;;;;2.35;100.00;100731.69;684634;28;1252;-66
2022/11/14 00:51:35;;;;;;;8.68;6.63;;;;;;;2.25;100.00;100731.38;685500;28;1278;-66
2022/11/14 00:52:13;;;;;;;9.52;7.00;;;;;;;2.25;100.00;100728.78;684450;28;5177;-65
2022/11/14 00:52:52;;;;;;;9.70;7.10;;;;;;;2.35;100.00;100725.66;684861;28;1103;-67
2022/11/14 00:53:31;;;;;;;9.18;6.97;;;;;;;2.27;100.00;100734.84;684566;28;1153;-67
2022/11/14 00:54:10;;;;;;;10.32;6.95;;;;;;;2.22;100.00;100730.44;683567;28;1259;-66
2022/11/14 00:54:52;;;;;;;8.55;6.70;;;;;;;2.28;100.00;100734.03;680696;28;4936;-66
2022/11/14 00:55:31;;;;;;;9.23;7.13;;;;;;;2.29;100.00;100731.50;684905;28;1231;-65
2022/11/14 00:56:10;;;;;;;9.30;6.55;;;;;;;2.19;100.00;100730.34;684201;28;1170;-66
2022/11/14 00:56:49;;;;;;;9.23;7.05;;;;;;;2.23;100.00;100726.16;688166;28;1217;-65
2022/11/14 00:57:28;;;;;;;9.90;7.32;;;;;;;2.30;100.00;100720.38;687803;28;1175;-66
2022/11/14 00:58:08;;;;;;;9.98;6.90;;;;;;;2.30;100.00;100728.09;683508;28;5340;-66
2022/11/14 00:58:47;;;;;;;10.45;6.80;;;;;;;2.48;100.00;100721.72;684729;28;1172;-66
2022/11/14 00:59:26;;;;;;;9.32;6.88;;;;;;;2.48;100.00;100722.59;684370;28;1111;-65
2022/11/14 01:00:06;;;;;;;9.10;6.88;;;;;;;2.41;100.00;100722.38;686341;28;1239;-67
2022/11/14 01:00:45;;;;;;;9.90;6.93;;;;;;;2.14;100.00;100725.88;683765;28;4567;-66
2022/11/14 01:01:24;;;;;;;10.90;7.28;;;;;;;2.20;100.00;100726.06;684789;28;1068;-66
2022/11/14 01:02:03;;;;;;;9.52;7.20;;;;;;;2.16;100.00;100722.53;684354;28;1132;-66
2022/11/14 01:02:42;;;;;;;8.95;6.90;;;;;;;2.18;100.00;100722.56;684323;28;1143;-66
2022/11/14 01:03:21;;;;;;;8.82;6.85;;;;;;;2.29;100.00;100713.44;684992;28;1068;-67
2022/11/14 01:04:00;;;;;;;9.93;6.68;;;;;;;2.27;100.00;100722.84;683807;28;5037;-67
2022/11/14 01:04:39;;;;;;;9.27;6.90;;;;;;;2.13;100.00;100721.53;685090;28;1116;-65
2022/11/14 01:05:18;;;;;;;9.57;7.22;;;;;;;2.14;100.00;100720.72;684206;28;1104;-67
2022/11/14 01:06:03;;;;;;;10.05;7.60;;;;;;;2.20;100.00;100715.75;684775;28;1103;-66
2022/11/14 01:06:42;;;;;;;9.73;6.80;;;;;;;2.37;100.00;100716.25;684623;28;4332;-67
2022/11/14 01:07:21;;;;;;;10.55;7.45;;;;;;;2.28;100.00;100710.81;684532;28;1224;-66
2022/11/14 01:08:00;;;;;;;9.73;7.40;;;;;;;2.30;100.00;100717.78;684884;28;1904;-66
2022/11/14 01:08:39;;;;;;;9.43;6.95;;;;;;;2.32;100.00;100716.09;684189;28;1061;-66
2022/11/14 01:09:18;;;;;;;9.43;7.03;;;;;;;2.22;100.00;100714.09;684328;28;1140;-66
2022/11/14 01:09:57;;;;;;;9.52;6.95;;;;;;;2.05;100.00;100718.75;685090;28;5115;-66
2022/11/14 01:10:41;;;;;;;9.05;6.85;;;;;;;2.03;100.00;100716.09;683778;28;1139;-66
2022/11/14 01:11:21;;;;;;;10.15;6.95;;;;;;;2.16;100.00;100716.47;684741;28;1156;-66
2022/11/14 01:12:00;;;;;;;8.45;6.85;;;;;;;2.06;100.00;100714.47;684353;28;1037;-65
2022/11/14 01:12:39;;;;;;;12.15;7.53;;;;;;;1.86;100.00;100713.00;684049;28;4968;-67
2022/11/14 01:13:18;;;;;;;9.95;7.25;;;;;;;1.89;100.00;100716.53;684710;28;1105;-66
2022/11/14 01:13:57;;;;;;;9.57;7.25;;;;;;;2.15;100.00;100718.19;684808;28;1080;-66
2022/11/14 01:14:37;;;;;;;9.60;7.10;;;;;;;2.01;100.00;100709.16;686299;28;1069;-66
2022/11/14 01:15:16;;;;;;;10.57;7.30;;;;;;;1.90;100.00;100721.72;685621;28;1438;-67
2022/11/14 01:15:59;;;;;;;8.95;7.10;;;;;;;1.96;100.00;100711.59;680650;28;5218;-66
2022/11/14 01:16:38;;;;;;;9.35;7.20;;;;;;;1.98;100.00;100716.78;682769;28;3670;-67
2022/11/14 01:17:17;;;;;;;9.65;7.03;;;;;;;1.97;100.00;100723.66;681581;28;1219;-66
2022/11/14 01:17:56;;;;;;;9.68;6.97;;;;;;;1.98;100.00;100709.94;681587;28;1161;-65
2022/11/14 01:18:37;;;;;;;9.52;7.10;;;;;;;2.03;100.00;100712.66;682179;28;1216;-66
2022/11/14 01:19:16;;;;;;;9.18;7.50;;;;;;;2.02;100.00;100711.78;682209;28;5374;-66
2022/11/14 01:19:55;;;;;;;9.88;7.25;;;;;;;1.99;100.00;100706.50;684576;28;1180;-66
2022/11/14 01:20:34;;;;;;;10.27;7.35;;;;;;;1.89;100.00;100714.81;684955;28;1183;-67
2022/11/14 01:21:13;;;;;;;9.90;7.70;;;;;;;1.94;100.00;100715.84;683410;28;1152;-67
2022/11/14 01:21:52;;;;;;;9.52;7.20;;;;;;;1.97;100.00;100712.47;680746;28;4434;-66
2022/11/14 01:22:31;;;;;;;10.15;7.28;;;;;;;2.07;100.00;100705.91;682360;28;1205;-66
2022/11/14 01:23:11;;;;;;;10.57;8.13;;;;;;;1.90;100.00;100711.41;683984;28;1160;-66
2022/11/14 01:23:50;;;;;;;9.60;7.45;;;;;;;2.01;100.00;100712.59;684115;28;1203;-67
2022/11/14 01:24:32;;;;;;;10.80;8.05;;;;;;;2.17;100.00;100706.22;685338;28;1163;-66
2022/11/14 01:25:11;;;;;;;10.52;8.07;;;;;;;2.12;100.00;100704.31;684024;28;4989;-66
2022/11/14 01:25:50;;;;;;;10.13;7.80;;;;;;;2.07;100.00;100706.75;684517;28;1171;-67
2022/11/14 01:26:29;;;;;;;11.93;8.27;;;;;;;2.06;100.00;100704.13;685205;28;1105;-66
2022/11/14 01:27:08;;;;;;;9.63;7.75;;;;;;;2.18;100.00;100700.22;683880;28;1139;-66
2022/11/14 01:27:47;;;;;;;10.00;7.53;;;;;;;2.21;100.00;100696.84;683532;28;4315;-66
2022/11/14 01:28:25;;;;;;;10.55;7.90;;;;;;;2.09;100.00;100699.06;684781;28;1055;-65
2022/11/14 01:29:04;;;;;;;10.15;7.70;;;;;;;1.95;100.00;100696.06;685466;28;1127;-66
2022/11/14 01:29:43;;;;;;;10.88;7.85;;;;;;;1.97;100.00;100692.72;684797;28;1174;-66
2022/11/14 01:30:22;;;;;;;10.82;7.55;;;;;;;1.98;100.00;100697.06;683494;28;1123;-66
2022/11/14 01:31:16;;;;;;;10.18;8.02;;;;;;;2.00;100.00;100691.94;684324;28;5163;-65
2022/11/14 01:31:55;;;;;;;9.60;7.45;;;;;;;1.96;100.00;100690.97;685247;28;1317;-66
2022/11/14 01:32:34;;;;;;;10.18;7.68;;;;;;;1.86;100.00;100694.09;684202;28;1327;-67
2022/11/14 01:33:13;;;;;;;9.90;8.13;;;;;;;1.78;100.00;100699.00;684104;28;1265;-66
2022/11/14 01:33:53;;;;;;;11.02;7.70;;;;;;;1.77;100.00;100688.63;683463;28;4856;-65
2022/11/14 01:34:32;;;;;;;9.75;7.57;;;;;;;1.78;100.00;100687.81;685257;28;1251;-66
2022/11/14 01:35:11;;;;;;;9.98;7.93;;;;;;;1.68;100.00;100687.53;684059;28;1148;-65
2022/11/14 01:35:50;;;;;;;10.90;7.72;;;;;;;1.72;100.00;100685.03;684463;28;1371;-66
2022/11/14 01:36:29;;;;;;;10.73;7.60;;;;;;;1.81;100.00;100680.19;684413;28;1180;-65
2022/11/14 01:37:08;;;;;;;10.10;7.70;;;;;;;1.72;100.00;100685.03;684901;28;5054;-65
2022/11/14 01:37:47;;;;;;;12.00;7.80;;;;;;;1.88;100.00;100676.94;685537;28;1151;-65
2022/11/14 01:38:26;;;;;;;10.55;7.78;;;;;;;1.87;100.00;100685.53;686618;28;1217;-66
2022/11/14 01:39:05;;;;;;;9.68;7.80;;;;;;;1.78;100.00;100680.94;686441;28;5218;-66
2022/11/14 01:39:44;;;;;;;10.18;8.10;;;;;;;1.68;100.00;100677.22;683431;28;4410;-66
2022/11/14 01:40:24;;;;;;;11.02;8.50;;;;;;;1.76;100.00;100672.31;684837;28;1158;-65
2022/11/14 01:41:03;;;;;;;10.38;7.90;;;;;;;1.82;100.00;100680.22;685230;28;1148;-66
2022/11/14 01:41:42;;;;;;;10.93;7.70;;;;;;;1.92;100.00;100677.94;684600;28;1105;-66
2022/11/14 01:42:21;;;;;;;10.10;7.57;;;;;;;1.93;100.00;100677.97;684567;28;1192;-66
2022/11/14 01:43:15;;;;;;;10.13;7.50;;;;;;;2.10;100.00;100667.31;683701;28;5139;-66
2022/11/14 01:43:54;;;;;;;10.10;7.45;;;;;;;1.96;100.00;100679.78;685309;28;1447;-66
2022/11/14 01:44:44;;;;;;;9.70;7.70;;;;;;;1.97;100.00;100681.53;684514;28;1287;-67
2022/11/14 01:45:49;;;;;;;10.90;7.85;;;;;;;1.84;100.00;100673.44;684372;28;1276;-66
2022/11/14 01:46:32;;;;;;;10.40;7.70;;;;;;;1.86;100.00;100678.63;683117;28;5121;-65
2022/11/14 01:47:15;;;;;;;9.70;7.50;;;;;;;1.83;100.00;100673.38;684728;28;1188;-66
2022/11/14 01:47:54;;;;;;;10.18;7.40;;;;;;;1.93;100.00;100674.53;684301;28;1341;-65
2022/11/14 01:48:54;;;;;;;9.02;7.32;;;;;;;1.76;100.00;100674.88;685010;28;1132;-65
2022/11/14 01:49:39;;;;;;;9.25;7.20;;;;;;;1.81;100.00;100668.16;684270;28;1220;-66
2022/11/14 01:50:18;;;;;;;9.50;7.20;;;;;;;1.98;100.00;100660.94;686252;28;1248;-65
2022/11/14 01:51:08;;;;;;;9.85;7.53;;;;;;;1.89;100.00;100665.81;686970;28;1350;-66
2022/11/14 01:51:53;;;;;;;12.07;7.50;;;;;;;1.96;100.00;100662.59;685177;28;4921;-66
2022/11/14 01:52:38;;;;;;;9.88;7.78;;;;;;;1.91;100.00;100666.75;684122;28;1231;-66
2022/11/14 01:53:17;;;;;;;9.95;7.13;;;;;;;1.85;100.00;100666.56;683094;28;1061;-65
2022/11/14 01:53:59;;;;;;;10.00;7.20;;;;;;;1.84;100.00;100663.13;684470;28;1116;-66
2022/11/14 01:54:44;;;;;;;9.52;7.30;;;;;;;1.83;100.00;100668.22;683108;28;5113;-65
2022/11/14 01:55:23;;;;;;;10.27;7.25;;;;;;;1.77;100.00;100662.88;681099;28;1147;-66
2022/11/14 01:56:06;;;;;;;10.20;7.55;;;;;;;1.65;100.00;100668.53;682294;28;1092;-67
2022/11/14 01:56:51;;;;;;;10.35;7.65;;;;;;;1.61;100.00;100664.97;680777;28;1124;-65
2022/11/14 01:57:37;;;;;;;9.13;7.45;;;;;;;1.74;100.00;100657.63;681906;28;1145;-66
2022/11/14 01:58:16;;;;;;;10.43;8.02;;;;;;;1.62;100.00;100669.31;684475;28;5015;-66
2022/11/14 01:59:01;;;;;;;9.60;7.25;;;;;;;1.66;100.00;100660.84;684619;28;1278;-65
2022/11/14 01:59:45;;;;;;;10.95;7.40;;;;;;;1.62;100.00;100659.00;684055;28;1104;-65
2022/11/14 02:00:24;;;;;;;9.65;7.43;;;;;;;1.61;100.00;100657.25;684858;28;1112;-65
2022/11/14 02:01:04;;;;;;;9.20;7.40;;;;;;;1.64;100.00;100651.31;683517;28;5147;-66
2022/11/14 02:01:49;;;;;;;9.23;7.15;;;;;;;1.68;100.00;100661.75;684318;28;1127;-65
2022/11/14 02:02:28;;;;;;;10.63;7.47;;;;;;;1.75;100.00;100654.22;685384;28;1161;-66
2022/11/14 02:03:07;;;;;;;9.45;7.13;;;;;;;1.76;100.00;100655.94;684576;28;1338;-66
2022/11/14 02:03:50;;;;;;;10.25;7.30;;;;;;;1.86;100.00;100652.84;683809;28;5108;-65
2022/11/14 02:04:35;;;;;;;8.63;6.70;;;;;;;1.70;100.00;100661.78;685010;28;1152;-65
2022/11/14 02:05:16;;;;;;;9.40;6.93;;;;;;;1.74;100.00;100657.63;684191;28;1144;-66
2022/11/14 02:05:56;;;;;;;10.25;7.45;;;;;;;1.72;100.00;100649.84;684827;28;1255;-64
2022/11/14 02:06:35;;;;;;;11.02;7.32;;;;;;;1.58;100.00;100657.16;684901;28;1223;-66
2022/11/14 02:07:14;;;;;;;9.20;7.15;;;;;;;1.45;100.00;100655.00;684180;28;5179;-65
2022/11/14 02:07:54;;;;;;;8.57;6.90;;;;;;;1.48;100.00;100652.50;685387;28;1037;-65
2022/11/14 02:08:34;;;;;;;9.07;7.05;;;;;;;1.78;100.00;100652.59;681184;28;1279;-65
2022/11/14 02:09:13;;;;;;;9.32;7.22;;;;;;;1.72;100.00;100660.16;681177;28;1196;-65
2022/11/14 02:09:53;;;;;;;9.02;7.07;;;;;;;1.77;100.00;100652.56;680805;28;4754;-65
2022/11/14 02:10:32;;;;;;;8.82;6.93;;;;;;;1.82;100.00;100656.16;684509;28;1154;-65
2022/11/14 02:11:12;;;;;;;10.60;7.30;;;;;;;1.76;100.00;100650.78;683535;28;1159;-65
2022/11/14 02:11:53;;;;;;;9.30;6.70;;;;;;;1.83;100.00;100657.91;685138;28;1100;-66
2022/11/14 02:12:33;;;;;;;8.93;7.05;;;;;;;1.93;100.00;100649.63;685137;28;1180;-65
2022/11/14 02:13:12;;;;;;;8.90;6.70;;;;;;;1.94;100.00;100659.13;685799;28;5159;-66
2022/11/14 02:13:51;;;;;;;8.68;6.63;;;;;;;1.81;100.00;100660.41;687590;28;1095;-65
2022/11/14 02:14:32;;;;;;;8.40;6.28;;;;;;;1.72;100.00;100655.00;687022;28;1087;-66
2022/11/14 02:15:13;;;;;;;9.27;6.63;;;;;;;1.64;100.00;100657.31;683613;28;1400;-66
2022/11/14 02:15:53;;;;;;;9.55;6.57;;;;;;;1.61;100.00;100649.50;682818;28;4564;-65
2022/11/14 02:16:32;;;;;;;8.40;6.20;;;;;;;1.73;100.00;100650.72;684819;28;1204;-66
2022/11/14 02:17:12;;;;;;;9.02;6.32;;;;;;;1.84;100.00;100651.91;683803;28;1422;-67
2022/11/14 02:17:51;;;;;;;9.50;6.85;;;;;;;1.84;100.00;100654.47;684503;28;1100;-67
2022/11/14 02:18:30;;;;;;;8.50;6.65;;;;;;;1.64;100.00;100654.75;686403;28;1108;-66
2022/11/14 02:19:09;;;;;;;8.50;6.43;;;;;;;1.61;100.00;100657.25;684476;28;5314;-66
2022/11/14 02:19:51;;;;;;;8.20;6.32;;;;;;;1.67;100.00;100656.56;685363;28;1147;-65
2022/11/14 02:20:36;;;;;;;9.38;6.60;;;;;;;1.69;100.00;100658.34;684912;28;1122;-65
2022/11/14 02:21:15;;;;;;;8.80;6.25;;;;;;;1.80;100.00;100647.47;684423;28;1112;-66
2022/11/14 02:21:54;;;;;;;9.35;6.72;;;;;;;1.76;100.00;100653.38;683238;28;4844;-66
2022/11/14 02:22:34;;;;;;;9.23;6.63;;;;;;;1.66;100.00;100655.69;684228;28;1353;-66
2022/11/14 02:23:12;;;;;;;8.27;6.68;;;;;;;1.67;100.00;100654.84;684288;28;1215;-66
2022/11/14 02:23:51;;;;;;;9.02;6.20;;;;;;;1.61;100.00;100657.25;685226;28;1197;-66
2022/11/14 02:24:30;;;;;;;8.52;6.32;;;;;;;1.58;100.00;100657.16;686352;28;1303;-65
2022/11/14 02:25:13;;;;;;;10.52;6.80;;;;;;;1.58;100.00;100652.00;684925;28;5137;-65
2022/11/14 02:25:53;;;;;;;8.82;6.30;;;;;;;1.57;100.00;100654.53;687101;28;1292;-65
2022/11/14 02:26:32;;;;;;;9.10;6.50;;;;;;;1.59;100.00;100656.28;684620;28;1144;-67
2022/11/14 02:27:13;;;;;;;8.93;6.50;;;;;;;1.57;100.00;100650.22;683439;28;1100;-67
2022/11/14 02:27:55;;;;;;;8.63;6.45;;;;;;;1.61;100.00;100651.22;683620;28;5257;-66
2022/11/14 02:28:35;;;;;;;7.93;6.10;;;;;;;1.66;100.00;100650.53;684603;28;1275;-66
2022/11/14 02:29:14;;;;;;;8.10;6.10;;;;;;;1.61;100.00;100652.09;683769;28;1258;-67
2022/11/14 02:29:53;;;;;;;8.45;6.05;;;;;;;1.54;100.00;100660.44;684375;28;1219;-66
2022/11/14 02:30:32;;;;;;;9.85;6.72;;;;;;;1.37;100.00;100657.31;684300;28;933;-65
2022/11/14 02:31:12;;;;;;;8.43;6.15;;;;;;;1.41;100.00;100648.84;683964;28;4997;-66
2022/11/14 02:31:51;;;;;;;8.43;6.18;;;;;;;1.43;100.00;100656.66;683725;28;1092;-65
2022/11/14 02:32:30;;;;;;;8.25;6.45;;;;;;;1.43;100.00;100656.66;684669;28;1205;-66
2022/11/14 02:33:09;;;;;;;9.25;6.28;;;;;;;1.47;100.00;100655.94;684312;28;1154;-65
2022/11/14 02:33:48;;;;;;;8.65;6.13;;;;;;;1.47;100.00;100653.34;683483;28;4312;-64
2022/11/14 02:34:27;;;;;;;8.32;6.40;;;;;;;1.29;100.00;100654.50;684473;28;1113;-66
2022/11/14 02:35:06;;;;;;;7.95;5.88;;;;;;;1.56;100.00;100652.75;684198;28;1179;-65
2022/11/14 02:35:45;;;;;;;8.02;6.05;;;;;;;1.68;100.00;100654.00;685129;28;1183;-65
2022/11/14 02:36:25;;;;;;;8.05;6.25;;;;;;;1.58;100.00;100653.66;684654;28;1096;-67
2022/11/14 02:37:05;;;;;;;8.98;6.40;;;;;;;1.46;100.00;100655.03;686314;28;5158;-65
2022/11/14 02:37:44;;;;;;;9.20;6.43;;;;;;;1.29;100.00;100653.63;686706;28;1140;-65
2022/11/14 02:38:23;;;;;;;9.38;6.65;;;;;;;1.28;100.00;100652.75;684462;28;1043;-65
2022/11/14 02:39:02;;;;;;;9.48;6.50;;;;;;;1.34;100.00;100652.97;681645;28;5048;-65
2022/11/14 02:39:41;;;;;;;9.40;6.28;;;;;;;1.46;100.00;100652.47;680901;28;4341;-65
2022/11/14 02:40:20;;;;;;;8.75;6.00;;;;;;;1.53;100.00;100659.56;684205;28;1194;-65
2022/11/14 02:41:00;;;;;;;8.75;6.20;;;;;;;1.47;100.00;100655.94;687571;28;1279;-65
2022/11/14 02:41:39;;;;;;;9.50;6.72;;;;;;;1.43;100.00;100652.38;687888;28;979;-65
2022/11/14 02:42:18;;;;;;;9.20;6.68;;;;;;;1.26;100.00;100649.25;687438;28;1031;-66
2022/11/14 02:42:57;;;;;;;8.93;6.43;;;;;;;1.21;100.00;100650.81;680521;28;5881;-65
2022/11/14 02:43:36;;;;;;;8.93;6.50;;;;;;;1.38;100.00;100647.91;681903;28;1004;-65
2022/11/14 02:44:16;;;;;;;8.80;6.10;;;;;;;1.34;100.00;100652.97;681763;28;1026;-65
2022/11/14 02:44:55;;;;;;;9.35;6.38;;;;;;;1.30;100.00;100652.78;685042;28;1151;-66
2022/11/14 02:45:35;;;;;;;9.73;6.50;;;;;;;1.13;100.00;100652.25;684532;28;1076;-66
2022/11/14 02:46:13;;;;;;;9.57;7.57;;;;;;;1.03;100.00;100656.22;683793;28;5022;-65
2022/11/14 02:46:53;;;;;;;9.10;6.43;;;;;;;1.00;100.00;100646.69;684151;28;1179;-66
2022/11/14 02:47:32;;;;;;;8.63;6.07;;;;;;;1.14;100.00;100651.44;684310;28;1303;-65
2022/11/14 02:48:11;;;;;;;9.60;6.63;;;;;;;1.25;100.00;100644.94;684502;28;1906;-65
2022/11/14 02:48:50;;;;;;;8.93;6.50;;;;;;;1.26;100.00;100649.25;683359;28;4331;-64
2022/11/14 02:49:28;;;;;;;8.25;6.28;;;;;;;1.25;100.00;100657.81;684602;28;1175;-66
2022/11/14 02:50:08;;;;;;;9.60;6.28;;;;;;;1.12;100.00;100647.91;684745;28;1021;-65
2022/11/14 02:50:48;;;;;;;8.02;6.18;;;;;;;1.04;100.00;100650.25;683718;28;1010;-66
2022/11/14 02:51:27;;;;;;;9.38;6.13;;;;;;;1.09;100.00;100645.25;684667;28;1025;-66
2022/11/14 02:52:06;;;;;;;9.57;6.10;;;;;;;1.11;100.00;100644.47;682849;28;5016;-65
2022/11/14 02:52:44;;;;;;;8.70;6.30;;;;;;;1.23;100.00;100654.28;686760;28;1186;-65
2022/11/14 02:53:24;;;;;;;8.65;5.60;;;;;;;1.27;100.00;100650.97;686579;28;1293;-65
2022/11/14 02:54:03;;;;;;;8.18;6.10;;;;;;;1.20;100.00;100646.47;686954;28;1155;-66
2022/11/14 02:54:42;;;;;;;8.02;5.97;;;;;;;1.25;100.00;100646.63;683629;28;5101;-66
2022/11/14 02:55:21;;;;;;;8.52;6.10;;;;;;;1.21;100.00;100643.06;683567;28;1302;-65
2022/11/14 02:56:00;;;;;;;8.80;6.00;;;;;;;1.23;100.00;100645.69;684887;28;1121;-65
2022/11/14 02:56:39;;;;;;;8.02;5.78;;;;;;;1.25;100.00;100651.78;684612;28;1111;-65
2022/11/14 02:57:18;;;;;;;9.32;6.03;;;;;;;1.16;100.00;100642.03;683484;28;1053;-65
2022/11/14 02:57:57;;;;;;;8.35;6.00;;;;;;;1.05;100.00;100644.25;683294;28;4989;-65
2022/11/14 02:58:36;;;;;;;8.48;5.82;;;;;;;0.94;100.00;100637.88;685152;28;897;-66
2022/11/14 02:59:15;;;;;;;8.30;5.90;;;;;;;0.99;100.00;100650.06;684592;28;1210;-65
2022/11/14 02:59:54;;;;;;;8.15;5.60;;;;;;;1.12;100.00;100651.38;685104;28;1251;-66
2022/11/14 03:00:33;;;;;;;8.10;5.55;;;;;;;1.22;100.00;100642.25;684602;28;1219;-65
2022/11/14 03:01:12;;;;;;;8.25;5.38;;;;;;;1.26;100.00;100650.94;683063;28;5012;-66
2022/11/14 03:01:52;;;;;;;9.25;5.38;;;;;;;1.26;100.00;100644.09;684467;28;1168;-65
2022/11/14 03:02:31;;;;;;;7.57;5.40;;;;;;;1.11;100.00;100641.00;684737;28;1049;-65
2022/11/14 03:03:10;;;;;;;8.88;5.50;;;;;;;1.01;100.00;100642.41;683922;28;1175;-65
2022/11/14 03:03:49;;;;;;;7.40;5.07;;;;;;;1.05;100.00;100644.25;683288;28;4448;-65
2022/11/14 03:04:28;;;;;;;8.88;5.72;;;;;;;1.05;100.00;100644.25;684490;28;1157;-65
2022/11/14 03:05:07;;;;;;;7.88;5.65;;;;;;;1.10;100.00;100641.84;683544;28;1269;-66
2022/11/14 03:05:45;;;;;;;8.18;5.90;;;;;;;1.11;100.00;100647.03;684445;28;1092;-65
2022/11/14 03:06:25;;;;;;;7.78;5.50;;;;;;;1.09;100.00;100640.09;684255;28;1077;-67
2022/11/14 03:07:04;;;;;;;7.20;5.32;;;;;;;1.15;100.00;100646.31;684324;28;5894;-65
2022/11/14 03:07:43;;;;;;;7.00;5.22;;;;;;;1.22;100.00;100647.41;684687;28;1308;-65
2022/11/14 03:08:22;;;;;;;7.70;5.35;;;;;;;1.17;100.00;100643.78;684775;28;1029;-65
2022/11/14 03:09:01;;;;;;;7.80;5.05;;;;;;;1.20;100.00;100638.75;687034;28;3605;-65
2022/11/14 03:09:40;;;;;;;8.45;5.05;;;;;;;1.15;100.00;100641.16;686099;28;4981;-65